Terminal Aerodrome Forecast
Issued by NWS

Home | Current Version | Previous Version | Text Only | Print | Product List | Glossary On
Versions: 1 2 3 4 5 6 7 8 9 10 11 12 13 14 15 16 17
294
FTUS43 KTOP 091720
TAFMHK
TAF
KMHK 091720Z 0918/1018 34013G22KT P6SM SCT100
     FM092300 32003KT P6SM SCT040 BKN100
     FM101200 17006KT P6SM SCT100=

USA.gov is the U.S. government's official web portal to all federal, state and local government web resources and services.